Time;durP1;ratioP1;P1;durP2;ratioP2;P2;SDS_P1;SDS_P2;PMS_P1;PMS_P2;Temp;Humidity;BMP_temperature;BMP_pressure;BME280_temperature;BME280_humidity;BME280_pressure;Samples;Min_cycle;Max_cycle;Signal;HPM_P1;HPM_P2
2023/07/26 00:00:56;;;;;;;4.07;2.13;;;;;;;;;;6244121;28;20251;-78
2023/07/26 00:04:00;;;;;;;2.00;1.90;;;;;;;;;;6261239;28;20287;-78
2023/07/26 00:07:04;;;;;;;1.98;1.83;;;;;;;;;;6259966;28;20362;-78
2023/07/26 00:10:09;;;;;;;6.63;1.95;;;;;;;;;;6261708;28;20232;-78
2023/07/26 00:13:13;;;;;;;3.10;2.38;;;;;;;;;;6261157;28;20237;-79
2023/07/26 00:16:18;;;;;;;2.40;2.30;;;;;;;;;;6261406;28;20241;-79
2023/07/26 00:19:23;;;;;;;3.25;2.10;;;;;;;;;;6261159;28;20324;-79
2023/07/26 00:22:27;;;;;;;2.92;2.35;;;;;;;;;;6261316;28;20255;-79
2023/07/26 00:25:31;;;;;;;4.53;2.30;;;;;;;;;;6261395;28;20259;-80
2023/07/26 00:28:35;;;;;;;3.33;2.17;;;;;;;;;;6261504;28;20235;-80
2023/07/26 00:31:40;;;;;;;5.57;2.35;;;;;;;;;;6260739;28;20512;-79
2023/07/26 00:34:45;;;;;;;2.97;2.03;;;;;;;;;;6260985;28;20240;-79
2023/07/26 00:37:48;;;;;;;2.55;2.08;;;;;;;;;;6263236;28;20224;-80
2023/07/26 00:40:53;;;;;;;3.20;2.08;;;;;;;;;;6272296;28;20281;-79
2023/07/26 00:43:57;;;;;;;2.38;2.00;;;;;;;;;;6275639;28;20276;-79
2023/07/26 00:47:05;;;;;;;2.20;1.65;;;;;;;;;;6258842;28;20569;-79
2023/07/26 00:50:09;;;;;;;1.80;1.70;;;;;;;;;;6260609;28;20240;-79
2023/07/26 00:53:14;;;;;;;6.32;2.00;;;;;;;;;;6275513;28;20273;-79
2023/07/26 00:56:17;;;;;;;4.30;2.13;;;;;;;;;;6260529;28;20240;-79
2023/07/26 00:59:21;;;;;;;2.85;2.20;;;;;;;;;;6260939;28;20240;-79
2023/07/26 01:02:26;;;;;;;3.80;2.25;;;;;;;;;;6250553;28;20477;-79
2023/07/26 01:05:34;;;;;;;2.47;2.17;;;;;;;;;;6236144;28;20282;-80
2023/07/26 01:08:44;;;;;;;2.13;2.00;;;;;;;;;;6250787;28;20406;-79
2023/07/26 01:11:54;;;;;;;2.42;2.13;;;;;;;;;;6211229;28;20386;-79
2023/07/26 01:14:59;;;;;;;8.05;1.90;;;;;;;;;;6211586;28;20261;-79
2023/07/26 01:18:13;;;;;;;2.78;1.90;;;;;;;;;;6211667;28;20237;-79
2023/07/26 01:21:17;;;;;;;4.13;2.17;;;;;;;;;;6211267;28;20237;-79
2023/07/26 01:24:23;;;;;;;3.40;2.20;;;;;;;;;;6211284;28;20262;-79
2023/07/26 01:27:26;;;;;;;9.48;2.42;;;;;;;;;;6215246;28;20257;-79
2023/07/26 01:30:32;;;;;;;3.20;1.90;;;;;;;;;;6232734;28;20553;-79
2023/07/26 01:33:38;;;;;;;3.65;2.10;;;;;;;;;;6216110;28;20491;-78
2023/07/26 01:36:42;;;;;;;3.90;2.25;;;;;;;;;;6216296;28;20241;-78
2023/07/26 01:39:49;;;;;;;3.10;2.30;;;;;;;;;;6216098;28;20253;-78
2023/07/26 01:42:53;;;;;;;2.05;1.95;;;;;;;;;;6215693;28;20242;-77
2023/07/26 01:45:57;;;;;;;2.47;2.00;;;;;;;;;;6230649;28;20289;-78
2023/07/26 01:49:01;;;;;;;7.53;2.22;;;;;;;;;;6216083;28;20237;-78
2023/07/26 01:52:05;;;;;;;3.03;2.17;;;;;;;;;;6215427;28;20245;-78
2023/07/26 01:55:10;;;;;;;4.20;2.38;;;;;;;;;;6215436;28;20237;-79
2023/07/26 01:58:14;;;;;;;4.30;2.55;;;;;;;;;;6215505;28;20247;-78
2023/07/26 02:01:18;;;;;;;7.40;2.83;;;;;;;;;;6214050;28;20277;-78
2023/07/26 02:04:22;;;;;;;2.97;2.50;;;;;;;;;;6196362;28;20428;-78
2023/07/26 02:07:26;;;;;;;2.47;2.38;;;;;;;;;;6207433;28;20289;-78
2023/07/26 02:10:31;;;;;;;3.63;2.42;;;;;;;;;;6220219;28;20273;-78
2023/07/26 02:13:35;;;;;;;2.92;2.00;;;;;;;;;;6215409;28;20238;-79
2023/07/26 02:16:39;;;;;;;4.65;2.10;;;;;;;;;;6230309;28;20273;-78
2023/07/26 02:19:43;;;;;;;3.67;1.90;;;;;;;;;;6215351;28;20246;-78
2023/07/26 02:22:47;;;;;;;4.35;2.50;;;;;;;;;;6230618;28;20454;-77
2023/07/26 02:25:52;;;;;;;5.07;2.10;;;;;;;;;;6216756;28;20265;-78
2023/07/26 02:28:56;;;;;;;2.10;2.00;;;;;;;;;;6230135;28;20451;-78
2023/07/26 02:32:00;;;;;;;5.40;2.45;;;;;;;;;;6230019;28;20453;-78
2023/07/26 02:35:05;;;;;;;4.57;2.42;;;;;;;;;;6230154;28;20269;-77
2023/07/26 02:38:11;;;;;;;6.60;1.90;;;;;;;;;;6229844;28;20273;-78
2023/07/26 02:41:16;;;;;;;2.88;2.67;;;;;;;;;;6214182;28;20242;-78
2023/07/26 02:44:20;;;;;;;3.95;2.22;;;;;;;;;;6214230;28;20316;-78
2023/07/26 02:47:24;;;;;;;4.25;2.03;;;;;;;;;;6213958;28;20273;-80
2023/07/26 02:50:28;;;;;;;4.20;1.90;;;;;;;;;;6245985;28;20527;-78
2023/07/26 02:53:31;;;;;;;2.08;1.90;;;;;;;;;;6214540;28;20246;-77
2023/07/26 02:56:36;;;;;;;2.22;1.90;;;;;;;;;;6229094;28;20281;-79
2023/07/26 02:59:42;;;;;;;4.65;1.90;;;;;;;;;;6245209;28;20269;-78
2023/07/26 03:02:45;;;;;;;4.90;2.20;;;;;;;;;;6235542;28;20287;-77
2023/07/26 03:05:49;;;;;;;5.93;2.25;;;;;;;;;;6261660;28;20264;-77
2023/07/26 03:08:53;;;;;;;4.25;1.70;;;;;;;;;;6262528;28;20245;-77
2023/07/26 03:11:58;;;;;;;4.05;2.17;;;;;;;;;;6262900;28;20244;-80
2023/07/26 03:15:02;;;;;;;3.67;1.67;;;;;;;;;;6262883;28;20405;-80
2023/07/26 03:18:06;;;;;;;4.80;1.83;;;;;;;;;;6262410;28;20544;-79
2023/07/26 03:21:10;;;;;;;2.88;1.60;;;;;;;;;;6262664;28;20240;-79
2023/07/26 03:24:14;;;;;;;3.70;1.80;;;;;;;;;;6277934;28;20267;-79
2023/07/26 03:27:19;;;;;;;5.65;1.73;;;;;;;;;;6277843;28;20311;-79
2023/07/26 03:30:26;;;;;;;5.78;2.00;;;;;;;;;;6269201;28;20240;-79
2023/07/26 03:33:30;;;;;;;3.38;1.85;;;;;;;;;;6264519;28;20240;-78
2023/07/26 03:36:34;;;;;;;2.85;2.15;;;;;;;;;;6262342;28;20316;-78
2023/07/26 03:39:38;;;;;;;9.82;2.00;;;;;;;;;;6277333;28;20263;-80
2023/07/26 03:42:43;;;;;;;4.85;2.10;;;;;;;;;;6262855;28;20243;-79
2023/07/26 03:45:47;;;;;;;3.55;1.98;;;;;;;;;;6260334;28;20287;-79
2023/07/26 03:48:51;;;;;;;5.63;1.85;;;;;;;;;;6276599;28;20291;-78
2023/07/26 03:51:55;;;;;;;5.60;2.10;;;;;;;;;;6264462;28;20228;-78
2023/07/26 03:54:58;;;;;;;6.03;2.17;;;;;;;;;;6262195;28;20243;-78
2023/07/26 03:58:04;;;;;;;6.35;1.92;;;;;;;;;;6261431;28;20244;-78
2023/07/26 04:01:07;;;;;;;4.60;2.17;;;;;;;;;;6259962;28;20284;-79
2023/07/26 04:04:12;;;;;;;6.57;2.40;;;;;;;;;;6268152;28;20300;-79
2023/07/26 04:07:16;;;;;;;3.63;2.58;;;;;;;;;;6236503;28;20348;-78
2023/07/26 04:10:20;;;;;;;4.30;2.40;;;;;;;;;;6236497;28;20240;-78
2023/07/26 04:13:25;;;;;;;4.00;1.73;;;;;;;;;;6236902;28;20245;-78
2023/07/26 04:16:29;;;;;;;7.65;2.13;;;;;;;;;;6236762;28;20237;-78
2023/07/26 04:19:33;;;;;;;2.13;1.95;;;;;;;;;;6236453;28;20285;-78
2023/07/26 04:22:36;;;;;;;9.15;3.97;;;;;;;;;;6236289;28;20269;-78
2023/07/26 04:25:40;;;;;;;4.72;3.50;;;;;;;;;;6236031;28;20435;-78
2023/07/26 04:28:46;;;;;;;10.35;3.67;;;;;;;;;;6236051;28;20268;-79
2023/07/26 04:31:49;;;;;;;7.35;2.85;;;;;;;;;;6236428;28;20297;-78
2023/07/26 04:34:53;;;;;;;3.80;2.22;;;;;;;;;;6236435;28;20240;-78
2023/07/26 04:37:57;;;;;;;13.60;2.35;;;;;;;;;;6251323;28;20399;-79
2023/07/26 04:41:01;;;;;;;12.50;2.92;;;;;;;;;;6236189;28;20236;-78
2023/07/26 04:44:06;;;;;;;13.02;2.42;;;;;;;;;;6236145;28;20249;-79
2023/07/26 04:47:11;;;;;;;4.28;2.22;;;;;;;;;;6235853;28;20257;-79
2023/07/26 04:50:15;;;;;;;9.57;2.00;;;;;;;;;;6236089;28;20236;-79
2023/07/26 04:53:19;;;;;;;8.23;1.80;;;;;;;;;;6242762;28;20241;-78
2023/07/26 04:56:25;;;;;;;7.97;2.00;;;;;;;;;;6246143;28;20389;-78
2023/07/26 04:59:30;;;;;;;4.90;2.00;;;;;;;;;;6235778;28;20249;-79
2023/07/26 05:02:34;;;;;;;5.72;1.88;;;;;;;;;;6244309;28;20288;-79
2023/07/26 05:05:38;;;;;;;6.13;2.10;;;;;;;;;;6260452;28;20513;-79
2023/07/26 05:08:43;;;;;;;12.05;2.40;;;;;;;;;;6260125;28;20526;-79
2023/07/26 05:11:47;;;;;;;4.45;1.90;;;;;;;;;;6250720;28;20272;-79
2023/07/26 05:14:52;;;;;;;6.50;2.40;;;;;;;;;;6239371;28;20248;-79
2023/07/26 05:17:56;;;;;;;3.35;2.05;;;;;;;;;;6235483;28;20464;-79
2023/07/26 05:21:00;;;;;;;8.77;2.30;;;;;;;;;;6236022;28;20237;-79
2023/07/26 05:24:04;;;;;;;7.40;2.15;;;;;;;;;;6235463;28;20246;-80
2023/07/26 05:27:07;;;;;;;8.48;2.50;;;;;;;;;;6235668;28;20241;-80
2023/07/26 05:30:13;;;;;;;3.60;2.05;;;;;;;;;;6235384;28;20411;-80
2023/07/26 05:33:17;;;;;;;9.52;2.00;;;;;;;;;;6235300;28;20237;-80
2023/07/26 05:36:20;;;;;;;6.00;1.75;;;;;;;;;;6235604;28;20355;-80
2023/07/26 05:39:24;;;;;;;5.25;2.05;;;;;;;;;;6235454;28;20249;-79
2023/07/26 05:42:28;;;;;;;5.28;2.10;;;;;;;;;;6235421;28;20241;-79
2023/07/26 05:45:33;;;;;;;4.38;2.13;;;;;;;;;;6235512;28;20241;-79
2023/07/26 05:48:37;;;;;;;7.90;2.20;;;;;;;;;;6249704;28;20476;-80
2023/07/26 05:51:41;;;;;;;5.20;1.75;;;;;;;;;;6235566;28;20257;-79
2023/07/26 05:54:44;;;;;;;5.25;1.70;;;;;;;;;;6235155;28;20241;-79
2023/07/26 05:57:48;;;;;;;5.18;1.98;;;;;;;;;;6235420;28;20237;-79
2023/07/26 06:00:53;;;;;;;2.90;2.17;;;;;;;;;;6235432;28;20252;-78
2023/07/26 06:03:57;;;;;;;6.45;2.05;;;;;;;;;;6234695;28;20392;-78
2023/07/26 06:07:01;;;;;;;4.72;1.90;;;;;;;;;;6235459;28;20241;-79
2023/07/26 06:10:08;;;;;;;4.25;1.90;;;;;;;;;;6246220;28;20422;-78
2023/07/26 06:13:13;;;;;;;2.95;1.63;;;;;;;;;;6261402;28;20260;-78
2023/07/26 06:16:18;;;;;;;6.38;1.98;;;;;;;;;;6266734;28;20245;-79
2023/07/26 06:19:22;;;;;;;4.72;1.73;;;;;;;;;;6264262;28;20244;-80
2023/07/26 06:22:26;;;;;;;11.18;2.28;;;;;;;;;;6276099;28;20205;-79
2023/07/26 06:25:30;;;;;;;6.55;2.08;;;;;;;;;;6264015;28;20239;-79
2023/07/26 06:28:34;;;;;;;4.15;1.52;;;;;;;;;;6264287;28;20268;-78
2023/07/26 06:31:39;;;;;;;6.72;1.75;;;;;;;;;;6263889;28;20418;-79
2023/07/26 06:34:43;;;;;;;7.30;2.35;;;;;;;;;;6264136;28;20529;-78
2023/07/26 06:37:47;;;;;;;3.05;1.80;;;;;;;;;;6263562;28;20244;-79
2023/07/26 06:40:51;;;;;;;4.90;2.03;;;;;;;;;;6263743;28;20244;-79
2023/07/26 06:43:55;;;;;;;4.82;1.58;;;;;;;;;;6263649;28;20239;-79
2023/07/26 06:47:00;;;;;;;4.82;2.15;;;;;;;;;;6263862;28;20252;-79
2023/07/26 06:50:04;;;;;;;7.47;2.17;;;;;;;;;;6263415;28;20263;-78
2023/07/26 06:53:08;;;;;;;5.03;1.92;;;;;;;;;;6263691;28;20244;-79
2023/07/26 06:56:13;;;;;;;5.32;1.40;;;;;;;;;;6263457;28;20288;-78
2023/07/26 06:59:17;;;;;;;3.13;1.70;;;;;;;;;;6263326;28;20497;-79
2023/07/26 07:02:22;;;;;;;4.22;2.03;;;;;;;;;;6263076;28;20283;-78
2023/07/26 07:05:27;;;;;;;3.72;1.77;;;;;;;;;;6263269;28;20236;-79
2023/07/26 07:08:31;;;;;;;2.08;1.48;;;;;;;;;;6263620;28;20264;-80
2023/07/26 07:11:35;;;;;;;3.53;1.70;;;;;;;;;;6278352;28;20268;-80
2023/07/26 07:14:39;;;;;;;3.22;1.70;;;;;;;;;;6245434;28;20272;-80
2023/07/26 07:17:44;;;;;;;3.53;1.65;;;;;;;;;;6266795;28;20244;-80
2023/07/26 07:20:56;;;;;;;3.25;2.17;;;;;;;;;;6265545;28;20229;-79
2023/07/26 07:24:00;;;;;;;3.78;1.77;;;;;;;;;;6262086;28;20240;-80
2023/07/26 07:27:04;;;;;;;5.32;1.80;;;;;;;;;;6263125;28;20245;-80
2023/07/26 07:30:10;;;;;;;2.17;1.67;;;;;;;;;;6263082;28;20260;-80
2023/07/26 07:33:16;;;;;;;3.78;2.35;;;;;;;;;;6262895;28;20236;-80
2023/07/26 07:36:20;;;;;;;9.00;2.60;;;;;;;;;;6262851;28;20244;-79
2023/07/26 07:39:24;;;;;;;3.13;2.00;;;;;;;;;;6262583;28;20256;-80
2023/07/26 07:42:27;;;;;;;1.85;1.60;;;;;;;;;;6262636;28;20239;-80
2023/07/26 07:45:31;;;;;;;6.47;1.77;;;;;;;;;;6265176;28;20233;-81
2023/07/26 07:48:37;;;;;;;6.78;1.90;;;;;;;;;;6269575;28;20245;-80
2023/07/26 07:51:42;;;;;;;11.68;1.85;;;;;;;;;;6262287;28;20244;-80
2023/07/26 07:54:46;;;;;;;3.65;1.75;;;;;;;;;;6262083;28;20244;-81
2023/07/26 07:57:50;;;;;;;5.20;1.80;;;;;;;;;;6262025;28;20297;-80
2023/07/26 08:00:58;;;;;;;2.38;1.50;;;;;;;;;;6260813;28;20275;-79
2023/07/26 08:04:03;;;;;;;7.25;1.80;;;;;;;;;;6261285;28;20288;-80
2023/07/26 08:07:07;;;;;;;5.68;2.00;;;;;;;;;;6261681;28;20232;-80
2023/07/26 08:10:11;;;;;;;7.68;2.00;;;;;;;;;;6261625;28;20267;-80
2023/07/26 08:13:15;;;;;;;6.80;1.67;;;;;;;;;;6261540;28;20228;-80
2023/07/26 08:16:19;;;;;;;5.40;1.77;;;;;;;;;;6261627;28;20244;-80
2023/07/26 08:19:24;;;;;;;4.28;1.42;;;;;;;;;;6261224;28;20643;-80
2023/07/26 08:22:29;;;;;;;5.43;2.60;;;;;;;;;;6261359;28;20264;-80
2023/07/26 08:25:33;;;;;;;1.85;1.65;;;;;;;;;;6261240;28;20240;-80
2023/07/26 08:28:37;;;;;;;1.75;1.63;;;;;;;;;;6261549;28;20259;-80
2023/07/26 08:31:41;;;;;;;5.00;1.58;;;;;;;;;;6261271;28;20576;-79
2023/07/26 08:34:46;;;;;;;3.55;1.52;;;;;;;;;;6261479;28;20524;-79
2023/07/26 08:37:50;;;;;;;2.60;1.67;;;;;;;;;;6260688;28;20233;-79
2023/07/26 08:40:54;;;;;;;2.58;1.67;;;;;;;;;;6261275;28;20239;-80
2023/07/26 08:44:00;;;;;;;2.58;1.67;;;;;;;;;;6260776;28;20423;-79
2023/07/26 08:47:06;;;;;;;2.40;1.77;;;;;;;;;;6261251;28;20312;-79
2023/07/26 08:50:12;;;;;;;7.53;1.67;;;;;;;;;;6260588;28;20260;-79
2023/07/26 08:53:16;;;;;;;4.85;1.70;;;;;;;;;;6260866;28;20241;-79
2023/07/26 08:56:20;;;;;;;2.05;1.50;;;;;;;;;;6260594;28;20248;-80
2023/07/26 08:59:25;;;;;;;3.78;1.60;;;;;;;;;;6260573;28;20247;-80
2023/07/26 09:02:29;;;;;;;6.25;2.10;;;;;;;;;;6260493;28;20477;-81
2023/07/26 09:05:35;;;;;;;3.55;1.85;;;;;;;;;;6260450;28;20253;-80
2023/07/26 09:08:39;;;;;;;5.95;1.50;;;;;;;;;;6260281;28;20245;-80
2023/07/26 09:11:49;;;;;;;3.67;1.60;;;;;;;;;;6269718;28;20276;-80
2023/07/26 09:14:55;;;;;;;6.25;1.77;;;;;;;;;;6266956;28;20244;-80
2023/07/26 09:18:03;;;;;;;4.72;1.70;;;;;;;;;;6260450;28;20240;-80
2023/07/26 09:21:10;;;;;;;2.90;1.90;;;;;;;;;;6260300;28;20425;-80
2023/07/26 09:24:13;;;;;;;3.53;1.73;;;;;;;;;;6260205;28;20428;-80
2023/07/26 09:27:19;;;;;;;2.13;1.60;;;;;;;;;;6260127;28;20517;-81
2023/07/26 09:30:24;;;;;;;2.22;1.45;;;;;;;;;;6262187;28;20268;-81
2023/07/26 09:33:28;;;;;;;1.67;1.60;;;;;;;;;;6262781;28;20477;-81
2023/07/26 09:36:44;;;;;;;3.90;1.48;;;;;;;;;;6260454;28;20469;-81
2023/07/26 09:39:48;;;;;;;3.88;1.40;;;;;;;;;;6260231;28;20232;-80
2023/07/26 09:42:52;;;;;;;1.50;1.40;;;;;;;;;;6260179;28;20240;-81
2023/07/26 09:46:00;;;;;;;6.38;1.80;;;;;;;;;;6259792;28;20241;-80
2023/07/26 09:49:08;;;;;;;1.95;1.48;;;;;;;;;;6264558;28;20431;-80
2023/07/26 09:52:14;;;;;;;4.25;1.80;;;;;;;;;;6266983;28;20265;-80
2023/07/26 09:55:19;;;;;;;4.53;1.70;;;;;;;;;;6267413;28;20240;-80
2023/07/26 09:58:36;;;;;;;3.88;1.95;;;;;;;;;;6270228;28;20261;-80
2023/07/26 10:01:41;;;;;;;1.60;1.50;;;;;;;;;;6269267;28;20264;-80
2023/07/26 10:04:49;;;;;;;1.30;1.25;;;;;;;;;;6269353;28;20248;-81
2023/07/26 10:07:55;;;;;;;1.20;1.20;;;;;;;;;;6267014;28;20288;-81
2023/07/26 10:11:02;;;;;;;1.45;1.30;;;;;;;;;;6268446;28;20448;-81
2023/07/26 10:14:06;;;;;;;1.70;1.60;;;;;;;;;;6269310;28;20234;-81
2023/07/26 10:17:11;;;;;;;2.38;1.50;;;;;;;;;;6268072;28;20244;-80
2023/07/26 10:20:15;;;;;;;2.00;1.90;;;;;;;;;;6268512;28;20261;-80
2023/07/26 10:23:20;;;;;;;1.60;1.50;;;;;;;;;;6283138;28;20272;-81
2023/07/26 10:26:24;;;;;;;3.47;1.40;;;;;;;;;;6268508;28;20235;-81
2023/07/26 10:29:28;;;;;;;2.03;1.55;;;;;;;;;;6268081;28;20244;-81
2023/07/26 10:32:32;;;;;;;2.25;2.05;;;;;;;;;;6267027;28;20272;-80
2023/07/26 10:35:36;;;;;;;2.58;1.63;;;;;;;;;;6266817;28;20246;-79
2023/07/26 10:38:41;;;;;;;3.85;2.15;;;;;;;;;;6274317;28;20211;-79
2023/07/26 10:41:50;;;;;;;5.05;1.50;;;;;;;;;;6270165;28;20245;-79
2023/07/26 10:44:55;;;;;;;1.90;1.80;;;;;;;;;;6266175;28;20236;-80
2023/07/26 10:47:58;;;;;;;2.58;1.80;;;;;;;;;;6265565;28;20244;-79
2023/07/26 10:51:22;;;;;;;6.32;1.70;;;;;;;;;;6265078;28;20263;-79
2023/07/26 10:54:39;;;;;;;7.25;1.50;;;;;;;;;;6265431;28;20244;-79
2023/07/26 10:57:49;;;;;;;2.47;1.50;;;;;;;;;;6265045;28;20240;-81
2023/07/26 11:01:01;;;;;;;4.15;1.48;;;;;;;;;;6265172;28;20253;-80
2023/07/26 11:04:11;;;;;;;3.47;1.52;;;;;;;;;;6266467;28;20583;-80
2023/07/26 11:07:15;;;;;;;2.33;1.35;;;;;;;;;;6263680;28;20244;-82
2023/07/26 11:10:22;;;;;;;1.70;1.42;;;;;;;;;;6263273;28;20248;-80
2023/07/26 11:13:28;;;;;;;1.48;1.42;;;;;;;;;;6263329;28;20267;-80
2023/07/26 11:16:33;;;;;;;1.30;1.20;;;;;;;;;;6262848;28;20244;-81
2023/07/26 11:19:44;;;;;;;4.72;1.45;;;;;;;;;;6262594;28;20241;-79
2023/07/26 11:22:48;;;;;;;1.40;1.30;;;;;;;;;;6263001;28;20244;-79
2023/07/26 11:25:56;;;;;;;2.13;1.10;;;;;;;;;;6262394;28;20240;-79
2023/07/26 11:29:00;;;;;;;4.78;1.45;;;;;;;;;;6262445;28;20237;-81
2023/07/26 11:32:04;;;;;;;2.90;1.45;;;;;;;;;;6262641;28;20568;-81
2023/07/26 11:35:08;;;;;;;4.13;1.63;;;;;;;;;;6262276;28;20241;-79
2023/07/26 11:38:14;;;;;;;2.72;1.60;;;;;;;;;;6262132;28;20228;-80
2023/07/26 11:41:20;;;;;;;2.88;2.10;;;;;;;;;;6262505;28;20245;-80
2023/07/26 11:44:26;;;;;;;3.65;1.58;;;;;;;;;;6262220;28;20257;-80
2023/07/26 11:47:32;;;;;;;2.00;1.80;;;;;;;;;;6262480;28;20248;-81
2023/07/26 11:50:37;;;;;;;3.90;1.70;;;;;;;;;;6262435;28;20427;-81
2023/07/26 11:53:42;;;;;;;1.63;1.48;;;;;;;;;;6261861;28;20410;-80
2023/07/26 11:56:52;;;;;;;5.93;1.40;;;;;;;;;;6261945;28;20252;-81
2023/07/26 11:59:58;;;;;;;1.40;1.30;;;;;;;;;;6261879;28;20232;-80
2023/07/26 12:03:02;;;;;;;2.00;1.50;;;;;;;;;;6271757;28;20280;-79
2023/07/26 12:06:06;;;;;;;1.83;1.42;;;;;;;;;;6266909;28;20240;-80
2023/07/26 12:09:14;;;;;;;2.38;1.58;;;;;;;;;;6243808;28;20446;-79
2023/07/26 12:12:20;;;;;;;1.95;1.30;;;;;;;;;;6261224;28;20263;-79
2023/07/26 12:15:25;;;;;;;3.28;1.25;;;;;;;;;;6261457;28;20256;-81
2023/07/26 12:18:29;;;;;;;1.70;1.30;;;;;;;;;;6265208;28;20225;-82
2023/07/26 12:21:33;;;;;;;3.90;1.67;;;;;;;;;;6261366;28;20232;-80
2023/07/26 12:24:51;;;;;;;1.85;1.67;;;;;;;;;;6261515;28;20265;-80
2023/07/26 12:27:56;;;;;;;2.00;1.48;;;;;;;;;;6259314;28;20273;-80
2023/07/26 12:31:00;;;;;;;3.80;1.70;;;;;;;;;;6261309;28;20244;-80
2023/07/26 12:34:06;;;;;;;3.33;1.40;;;;;;;;;;6261332;28;20267;-78
2023/07/26 12:37:10;;;;;;;1.45;1.33;;;;;;;;;;6260731;28;20351;-81
2023/07/26 12:40:14;;;;;;;3.25;1.35;;;;;;;;;;6260870;28;20236;-80
2023/07/26 12:43:27;;;;;;;1.95;1.17;;;;;;;;;;6261387;28;20241;-82
2023/07/26 12:46:31;;;;;;;2.65;1.30;;;;;;;;;;6260712;28;20237;-81
2023/07/26 12:49:54;;;;;;;1.50;1.40;;;;;;;;;;6260876;28;20431;-81
2023/07/26 12:52:58;;;;;;;1.85;1.30;;;;;;;;;;6260766;28;20269;-81
2023/07/26 12:56:02;;;;;;;3.67;1.23;;;;;;;;;;6260570;28;20240;-81
2023/07/26 12:59:07;;;;;;;1.58;1.30;;;;;;;;;;6260959;28;20236;-80
2023/07/26 13:02:11;;;;;;;1.67;1.20;;;;;;;;;;6260703;28;20296;-81
2023/07/26 13:05:15;;;;;;;1.48;1.05;;;;;;;;;;6260644;28;20228;-81
2023/07/26 13:08:19;;;;;;;2.38;1.17;;;;;;;;;;6260697;28;20237;-82
2023/07/26 13:11:23;;;;;;;4.25;1.30;;;;;;;;;;6260347;28;20252;-80
2023/07/26 13:14:28;;;;;;;1.90;1.08;;;;;;;;;;6260689;28;20268;-80
2023/07/26 13:17:32;;;;;;;2.25;1.20;;;;;;;;;;6260741;28;20244;-79
2023/07/26 13:20:36;;;;;;;1.33;1.00;;;;;;;;;;6260424;28;20468;-80
2023/07/26 13:23:39;;;;;;;2.17;0.88;;;;;;;;;;6263242;28;20247;-80
2023/07/26 13:26:43;;;;;;;0.98;0.98;;;;;;;;;;6268996;28;20339;-78
2023/07/26 13:29:48;;;;;;;2.33;1.20;;;;;;;;;;6274983;28;20203;-80
2023/07/26 13:32:52;;;;;;;1.00;1.00;;;;;;;;;;6265424;28;20560;-79
2023/07/26 13:35:56;;;;;;;1.00;1.00;;;;;;;;;;6265094;28;20241;-80
2023/07/26 13:39:00;;;;;;;1.20;1.13;;;;;;;;;;6265427;28;20236;-80
2023/07/26 13:42:04;;;;;;;1.00;0.95;;;;;;;;;;6264987;28;20236;-80
2023/07/26 13:45:10;;;;;;;1.92;1.00;;;;;;;;;;6265347;28;20308;-80
2023/07/26 13:48:14;;;;;;;0.93;0.93;;;;;;;;;;6264891;28;20236;-79
2023/07/26 13:51:18;;;;;;;1.00;1.00;;;;;;;;;;6264884;28;20274;-80
2023/07/26 13:54:21;;;;;;;1.00;1.00;;;;;;;;;;6265553;28;20272;-80
2023/07/26 13:57:26;;;;;;;1.02;1.02;;;;;;;;;;6264592;28;20248;-81
2023/07/26 14:00:31;;;;;;;1.35;0.93;;;;;;;;;;6264826;28;20256;-80
2023/07/26 14:03:35;;;;;;;1.23;1.23;;;;;;;;;;6263179;28;20518;-81
2023/07/26 14:06:38;;;;;;;4.40;1.05;;;;;;;;;;6264354;28;20244;-80
2023/07/26 14:09:42;;;;;;;4.18;1.38;;;;;;;;;;6264561;28;20272;-81
2023/07/26 14:12:46;;;;;;;4.93;1.60;;;;;;;;;;6264070;28;20268;-80
2023/07/26 14:15:51;;;;;;;1.95;1.38;;;;;;;;;;6264522;28;20429;-81
2023/07/26 14:19:00;;;;;;;2.53;1.20;;;;;;;;;;6264241;28;20245;-81
2023/07/26 14:22:05;;;;;;;1.08;0.90;;;;;;;;;;6264162;28;20296;-80
2023/07/26 14:25:09;;;;;;;5.25;1.30;;;;;;;;;;6264363;28;20261;-82
2023/07/26 14:28:13;;;;;;;2.13;1.00;;;;;;;;;;6263916;28;20233;-80
2023/07/26 14:31:18;;;;;;;3.60;1.40;;;;;;;;;;6264376;28;20244;-80
2023/07/26 14:34:22;;;;;;;1.02;1.02;;;;;;;;;;6264118;28;20264;-80
2023/07/26 14:37:26;;;;;;;1.75;1.60;;;;;;;;;;6279675;28;20267;-80
2023/07/26 14:40:30;;;;;;;1.73;1.10;;;;;;;;;;6263764;28;20249;-80
2023/07/26 14:43:33;;;;;;;1.13;1.13;;;;;;;;;;6263766;28;20244;-80
2023/07/26 14:46:39;;;;;;;1.20;1.08;;;;;;;;;;6268694;28;20233;-80
2023/07/26 14:49:43;;;;;;;1.05;1.05;;;;;;;;;;6262558;28;20573;-81
2023/07/26 14:53:06;;;;;;;1.15;1.10;;;;;;;;;;6276424;28;20269;-81
2023/07/26 14:56:09;;;;;;;1.88;1.00;;;;;;;;;;6263578;28;20524;-80
2023/07/26 14:59:13;;;;;;;1.30;1.20;;;;;;;;;;6263296;28;20244;-80
2023/07/26 15:02:19;;;;;;;1.30;1.20;;;;;;;;;;6263400;28;20291;-80
2023/07/26 15:05:23;;;;;;;1.13;1.13;;;;;;;;;;6263337;28;20446;-80
2023/07/26 15:08:27;;;;;;;5.20;1.20;;;;;;;;;;6263307;28;20380;-80
2023/07/26 15:11:31;;;;;;;1.10;1.10;;;;;;;;;;6262913;28;20244;-80
2023/07/26 15:14:35;;;;;;;5.10;1.42;;;;;;;;;;6262930;28;20544;-80
2023/07/26 15:17:40;;;;;;;3.80;1.20;;;;;;;;;;6262655;28;20236;-80
2023/07/26 15:20:44;;;;;;;1.00;1.00;;;;;;;;;;6262451;28;20236;-80
2023/07/26 15:23:52;;;;;;;2.38;1.10;;;;;;;;;;6262971;28;20244;-80
2023/07/26 15:26:56;;;;;;;1.85;1.20;;;;;;;;;;6262608;28;20248;-80
2023/07/26 15:29:59;;;;;;;0.98;0.98;;;;;;;;;;6264922;28;20237;-79
2023/07/26 15:33:07;;;;;;;2.05;1.20;;;;;;;;;;6265427;28;20233;-80
2023/07/26 15:36:12;;;;;;;1.30;1.25;;;;;;;;;;6262317;28;20232;-81
2023/07/26 15:39:15;;;;;;;2.88;0.90;;;;;;;;;;6262147;28;20236;-80
2023/07/26 15:42:19;;;;;;;1.17;1.00;;;;;;;;;;6262466;28;20236;-81
2023/07/26 15:45:26;;;;;;;1.10;1.00;;;;;;;;;;6261346;28;20244;-80
2023/07/26 15:48:51;;;;;;;1.33;0.80;;;;;;;;;;6262672;28;20248;-80
2023/07/26 15:51:55;;;;;;;0.88;0.88;;;;;;;;;;6265028;28;20228;-79
2023/07/26 15:54:59;;;;;;;1.85;1.40;;;;;;;;;;6261810;28;20260;-80
2023/07/26 15:58:03;;;;;;;1.65;1.55;;;;;;;;;;6261667;28;20237;-80
2023/07/26 16:01:08;;;;;;;2.58;1.50;;;;;;;;;;6262099;28;20255;-81
2023/07/26 16:04:14;;;;;;;1.67;1.35;;;;;;;;;;6261522;28;20291;-81
2023/07/26 16:07:20;;;;;;;4.85;1.20;;;;;;;;;;6261793;28;20240;-80
2023/07/26 16:10:25;;;;;;;1.13;1.05;;;;;;;;;;6261143;28;20240;-78
2023/07/26 16:13:29;;;;;;;1.30;1.30;;;;;;;;;;6261970;28;20505;-81
2023/07/26 16:16:33;;;;;;;1.90;1.40;;;;;;;;;;6274026;28;20268;-80
2023/07/26 16:19:58;;;;;;;1.52;1.50;;;;;;;;;;6261627;28;20236;-79
2023/07/26 16:23:02;;;;;;;2.78;1.58;;;;;;;;;;6261153;28;20313;-79
2023/07/26 16:26:06;;;;;;;1.40;1.40;;;;;;;;;;6261572;28;20477;-80
2023/07/26 16:29:10;;;;;;;1.77;1.50;;;;;;;;;;6261221;28;20411;-79
2023/07/26 16:32:14;;;;;;;1.30;1.13;;;;;;;;;;6259955;28;20457;-79
2023/07/26 16:35:19;;;;;;;1.20;1.10;;;;;;;;;;6261493;28;20579;-79
2023/07/26 16:38:23;;;;;;;1.98;1.00;;;;;;;;;;6261305;28;20513;-79
2023/07/26 16:41:27;;;;;;;1.05;0.95;;;;;;;;;;6261006;28;20291;-80
2023/07/26 16:44:31;;;;;;;1.25;1.25;;;;;;;;;;6260539;28;20433;-79
2023/07/26 16:47:35;;;;;;;1.15;1.00;;;;;;;;;;6261452;28;20249;-79
2023/07/26 16:50:40;;;;;;;2.22;1.13;;;;;;;;;;6260603;28;20237;-80
2023/07/26 16:53:44;;;;;;;1.25;1.15;;;;;;;;;;6260841;28;20245;-80
2023/07/26 16:56:48;;;;;;;1.40;1.30;;;;;;;;;;6260645;28;20287;-80
2023/07/26 16:59:52;;;;;;;4.05;1.42;;;;;;;;;;6260837;28;20236;-81
2023/07/26 17:02:56;;;;;;;1.10;1.10;;;;;;;;;;6262639;28;20319;-80
2023/07/26 17:06:01;;;;;;;1.30;1.23;;;;;;;;;;6263336;28;20244;-79
2023/07/26 17:09:05;;;;;;;1.95;1.00;;;;;;;;;;6260556;28;20248;-79
2023/07/26 17:12:09;;;;;;;0.93;0.93;;;;;;;;;;6259762;28;20240;-79
2023/07/26 17:15:13;;;;;;;1.48;1.15;;;;;;;;;;6263123;28;20267;-79
2023/07/26 17:18:17;;;;;;;2.83;1.35;;;;;;;;;;6259723;28;20232;-79
2023/07/26 17:21:23;;;;;;;1.27;1.20;;;;;;;;;;6259999;28;20431;-79
2023/07/26 17:24:27;;;;;;;1.20;1.20;;;;;;;;;;6259999;28;20240;-79
2023/07/26 17:27:32;;;;;;;1.65;1.40;;;;;;;;;;6260155;28;20252;-79
2023/07/26 17:30:36;;;;;;;1.77;1.13;;;;;;;;;;6275364;28;20275;-79
2023/07/26 17:33:40;;;;;;;1.42;1.30;;;;;;;;;;6260180;28;20236;-79
2023/07/26 17:36:46;;;;;;;1.10;1.10;;;;;;;;;;6259492;28;20276;-79
2023/07/26 17:39:50;;;;;;;3.13;1.20;;;;;;;;;;6265999;28;20249;-80
2023/07/26 17:42:54;;;;;;;1.92;1.30;;;;;;;;;;6264064;28;20240;-81
2023/07/26 17:45:58;;;;;;;2.10;1.67;;;;;;;;;;6259616;28;20412;-80
2023/07/26 17:49:02;;;;;;;1.70;1.60;;;;;;;;;;6260155;28;20240;-81
2023/07/26 17:52:08;;;;;;;2.25;1.65;;;;;;;;;;6259585;28;20232;-80
2023/07/26 17:55:14;;;;;;;1.40;1.30;;;;;;;;;;6259823;28;20296;-79
2023/07/26 17:58:18;;;;;;;4.50;1.60;;;;;;;;;;6259336;28;20236;-80
2023/07/26 18:01:22;;;;;;;2.03;1.88;;;;;;;;;;6259677;28;20264;-79
2023/07/26 18:04:26;;;;;;;1.48;1.48;;;;;;;;;;6260433;28;20300;-80
2023/07/26 18:07:32;;;;;;;1.60;1.50;;;;;;;;;;6260315;28;20253;-81
2023/07/26 18:10:37;;;;;;;1.45;1.25;;;;;;;;;;6265205;28;20240;-80
2023/07/26 18:13:41;;;;;;;4.35;1.33;;;;;;;;;;6266318;28;20245;-81
2023/07/26 18:16:46;;;;;;;1.40;1.30;;;;;;;;;;6267572;28;20267;-80
2023/07/26 18:19:53;;;;;;;1.85;1.35;;;;;;;;;;6266499;28;20236;-80
2023/07/26 18:22:59;;;;;;;1.65;1.30;;;;;;;;;;6266374;28;20236;-80
2023/07/26 18:26:02;;;;;;;1.63;1.40;;;;;;;;;;6268260;28;20263;-78
2023/07/26 18:29:06;;;;;;;2.47;1.33;;;;;;;;;;6266947;28;20244;-80